Austwell, Texas
Current Conditions -  °F | °C
As of 8:55 PM on Monday 20 Oct 2014 (Local Time) from KPKV Reporting Station
Clear Clear  
Wind Chill: 74°   Ceiling: Unl
Heat Index: 74°   Visibility: 10mi
Dew Point: 67°   Wind: 9mph
Humidity: 78%   Direction: 100°E
Pressure: 29.99"   Gusts: NA
Location:  28.39°N, 96.84°W
Report Text: KPKV 210155Z AUTO 10008KT 10SM CLR 24/20 A2999 RMK AO2 T02360195
Loading
Personal Weather Stations






























Interactive Weather Map
Tropical Storm Tracking
New forecast layout! Learn more

10-Day Weather Forecast

Advertisements
Track Severe Weather on mobile